Etusivu
METAR-TAF:

METAR-TAF

Lentoasemat :

Malindi, Kenia

Leveyspiiri: 03-14S, Pituuspiiri: 040-06E, korkeus merenpinnasta: 20 m

Tämänhetkinen sää

Tämä raportti tehtiin 1 tunti ja 28 minuuttia sitten, kello 15.00 UTC
Tuuli 10 kn etelästä/lounaasta
Lämpötila 27°C
Kosteus 66%
Ilmanpaine 1014 hPa
Näkyvyys 10 km tai enemmän
Muutamia pilviä 2200 ft:n korkeudessa

METAR: HKML 131500Z 20010KT 9999 FEW022 27/20 Q1014

Aika: 19:28 (16:28 UTC)

Sääennuste

Tämä raportti tehtiin 5 tuntia ja 28 minuuttia sitten, kello 11.00 UTC
Ennuste voimassa 13. päivästä klo 12 UTC - 14. päivään klo 12 UTC
Tuuli 15 kn etelästä
Näkyvyys 10 km tai enemmän
Muutamia pilviä 2300 ft:n korkeudessa
Tulossa
14. päivästä klo 06 UTC - 14. päivään klo 09 UTC
Hajonneita pilviä 2200 ft:n korkeudessa
Tulossa
14. päivästä klo 09 UTC - 14. päivään klo 12 UTC
Hajanaisia pilviä 2400 ft:n korkeudessa

TAF: HKML 131100Z 1312/1412 19015KT 9999 FEW023 BECMG 1406/1409 BKN022 BECMG 1409/1412 SCT024

Säähavainnot ja -ennusteet yli 4000 lentoasemalta (METAR- ja TAF-raportit).

Käytössä olevat sääasemat on merkitty karttaan keltaisilla ja punaisilla pisteillä.

Aseta hiiri pisteen päälle nähdäksesi sääaseman nimen.

Klikkaa sitten nähdäksesi säähavainnot ja -ennusteet.

Kartan vaihtaminen: klikkaa mustalla rastilla varustettuja vihreitä pisteitä, niin voit zoomata sisään; viivalla varustettua vihreää pistettä, niin voit zoomata ulos tai vihreitä nuolia, niin pääset viereisille kartoille.


METAR-TAF: